Time;durP1;ratioP1;P1;durP2;ratioP2;P2;SDS_P1;SDS_P2;PMS_P1;PMS_P2;Temp;Humidity;BMP_temperature;BMP_pressure;BME280_temperature;BME280_humidity;BME280_pressure;Samples;Min_cycle;Max_cycle;Signal;HPM_P1;HPM_P2
2023/02/13 00:01:02;;;;;;;38.90;24.50;;;;;;;5.52;72.99;102397.98;111014;1257;21950;-78
2023/02/13 00:03:43;;;;;;;40.00;26.10;;;;;;;5.53;73.00;102392.31;111215;1256;22260;-78
2023/02/13 00:06:16;;;;;;;40.80;27.40;;;;;;;5.50;73.06;102389.51;110965;1257;21958;-79
2023/02/13 00:08:46;;;;;;;39.10;26.70;;;;;;;5.54;73.11;102393.88;110945;1257;23046;-77
2023/02/13 00:11:16;;;;;;;43.30;24.80;;;;;;;5.54;73.12;102388.34;110875;1258;21997;-78
2023/02/13 00:13:46;;;;;;;36.10;25.70;;;;;;;5.52;73.08;102385.91;111058;1257;22075;-78
2023/02/13 00:16:17;;;;;;;39.50;24.50;;;;;;;5.51;73.10;102385.20;110978;1257;22806;-77
2023/02/13 00:18:48;;;;;;;38.50;24.80;;;;;;;5.47;73.09;102383.08;110752;1257;21962;-79
2023/02/13 00:21:18;;;;;;;36.50;25.20;;;;;;;5.49;73.15;102383.45;110831;1257;21950;-77
2023/02/13 00:23:48;;;;;;;36.50;25.10;;;;;;;5.50;73.28;102386.05;111154;1254;23113;-77
2023/02/13 00:26:23;;;;;;;34.00;25.00;;;;;;;5.49;73.24;102380.68;110861;1258;23021;-78
2023/02/13 00:28:59;;;;;;;35.40;25.00;;;;;;;5.47;73.26;102370.45;110851;1257;22868;-79
2023/02/13 00:31:29;;;;;;;36.20;26.60;;;;;;;5.46;73.28;102362.49;111248;1257;22244;-78
2023/02/13 00:34:05;;;;;;;46.80;27.50;;;;;;;5.39;73.10;102357.73;111101;1257;22259;-78
2023/02/13 00:36:59;;;;;;;42.50;28.90;;;;;;;5.34;73.22;102358.49;110911;1255;21968;-77
2023/02/13 00:39:40;;;;;;;42.30;27.70;;;;;;;5.28;73.55;102358.77;110900;1257;22090;-76
2023/02/13 00:42:25;;;;;;;38.60;28.70;;;;;;;5.31;73.82;102364.50;110924;1257;23031;-76
2023/02/13 00:44:56;;;;;;;48.50;29.20;;;;;;;5.35;73.85;102362.33;110932;1257;23016;-78
2023/02/13 00:47:28;;;;;;;39.10;28.40;;;;;;;5.37;73.87;102362.70;110626;1253;21976;-78
2023/02/13 00:50:11;;;;;;;41.30;27.30;;;;;;;5.42;73.98;102362.95;110717;1261;22513;-79
2023/02/13 00:52:54;;;;;;;40.20;27.90;;;;;;;5.42;74.01;102355.88;110703;1261;23786;-79
2023/02/13 00:55:27;;;;;;;40.40;27.80;;;;;;;5.48;73.98;102360.45;110675;1261;21980;-79
2023/02/13 00:58:06;;;;;;;41.00;27.80;;;;;;;5.50;73.89;102357.38;110758;1261;21965;-78
2023/02/13 01:00:41;;;;;;;38.90;26.40;;;;;;;5.51;73.93;102355.49;110696;1261;21967;-78
2023/02/13 01:03:23;;;;;;;40.60;27.60;;;;;;;5.50;73.95;102351.85;110675;1261;22130;-76
2023/02/13 01:05:57;;;;;;;38.90;27.20;;;;;;;5.50;73.89;102351.84;110919;1257;21952;-78
2023/02/13 01:08:27;;;;;;;41.50;28.30;;;;;;;5.48;73.95;102345.27;110799;1262;22038;-78
2023/02/13 01:10:58;;;;;;;39.20;27.30;;;;;;;5.47;74.01;102344.39;110692;1261;23761;-78
2023/02/13 01:13:35;;;;;;;35.70;25.50;;;;;;;5.48;73.89;102352.35;110815;1250;23045;-78
2023/02/13 01:16:11;;;;;;;36.90;27.80;;;;;;;5.48;74.06;102352.17;110620;1261;22314;-78
2023/02/13 01:18:46;;;;;;;42.20;28.00;;;;;;;5.50;74.07;102346.15;110798;1258;22947;-79
2023/02/13 01:21:22;;;;;;;38.90;26.90;;;;;;;5.53;74.09;102344.64;111115;1258;21985;-78
2023/02/13 01:23:56;;;;;;;35.80;26.10;;;;;;;5.56;74.04;102340.89;110817;1257;21986;-78
2023/02/13 01:26:27;;;;;;;39.80;25.90;;;;;;;5.58;74.14;102336.42;111056;1257;22046;-78
2023/02/13 01:29:05;;;;;;;36.20;24.10;;;;;;;5.60;74.13;102334.73;111319;1257;21970;-78
2023/02/13 01:31:42;;;;;;;34.20;23.50;;;;;;;5.59;74.10;102334.38;111011;1258;22977;-79
2023/02/13 01:34:13;;;;;;;27.90;21.50;;;;;;;5.59;74.19;102332.81;111296;1258;22031;-77
2023/02/13 01:36:43;;;;;;;32.80;22.00;;;;;;;5.63;74.38;102326.64;111253;1258;21956;-78
2023/02/13 01:39:22;;;;;;;34.70;23.10;;;;;;;5.64;74.16;102332.72;110915;1255;21991;-78
2023/02/13 01:42:03;;;;;;;29.60;22.20;;;;;;;5.64;74.06;102333.05;110862;1258;22063;-78
2023/02/13 01:44:59;;;;;;;29.40;21.60;;;;;;;5.63;73.87;102327.17;111006;1258;21967;-78
2023/02/13 01:48:00;;;;;;;29.40;21.00;;;;;;;5.56;73.87;102324.83;110929;1258;23082;-78
2023/02/13 01:50:54;;;;;;;31.50;19.40;;;;;;;5.55;73.90;102318.60;111141;1257;21963;-78
2023/02/13 01:54:01;;;;;;;27.00;17.50;;;;;;;5.54;74.09;102316.85;111056;1257;21948;-79
2023/02/13 01:56:59;;;;;;;25.40;16.10;;;;;;;5.55;74.11;102320.14;110979;1257;21952;-79
2023/02/13 01:59:47;;;;;;;23.80;16.30;;;;;;;5.55;74.05;102317.91;110859;1257;21965;-78
2023/02/13 02:02:34;;;;;;;25.70;16.50;;;;;;;5.56;74.01;102316.02;110876;1257;21959;-78
2023/02/13 02:05:21;;;;;;;24.50;15.70;;;;;;;5.58;73.97;102317.25;110898;1259;23030;-77
2023/02/13 02:07:53;;;;;;;18.40;13.60;;;;;;;5.59;73.94;102314.67;110731;1256;23033;-79
2023/02/13 02:10:32;;;;;;;19.00;12.80;;;;;;;5.61;73.78;102314.89;110791;1261;21984;-78
2023/02/13 02:13:19;;;;;;;22.40;13.70;;;;;;;5.65;73.69;102316.13;110695;1254;23115;-79
2023/02/13 02:16:08;;;;;;;24.10;13.50;;;;;;;5.64;73.62;102314.24;110654;1261;23807;-79
2023/02/13 02:18:59;;;;;;;20.90;12.90;;;;;;;5.63;73.50;102312.48;110653;1261;21992;-78
2023/02/13 02:22:07;;;;;;;20.90;13.70;;;;;;;5.61;73.35;102311.43;110719;1261;22197;-78
2023/02/13 02:25:14;;;;;;;19.30;12.70;;;;;;;5.60;73.31;102305.72;110683;1261;21970;-79
2023/02/13 02:28:44;;;;;;;19.60;12.90;;;;;;;5.57;73.23;102305.85;110900;1261;22911;-80
2023/02/13 02:32:01;;;;;;;21.30;12.80;;;;;;;5.55;73.11;102303.39;110944;1261;21988;-80
2023/02/13 02:34:53;;;;;;;19.70;12.10;;;;;;;5.54;73.12;102301.33;110124;1269;21986;-78
2023/02/13 02:37:50;;;;;;;20.40;12.90;;;;;;;5.57;73.06;102306.70;110013;1268;23672;-79
2023/02/13 02:41:00;;;;;;;20.80;14.30;;;;;;;5.56;72.91;102310.50;110198;1268;22592;-78
2023/02/13 02:43:48;;;;;;;18.70;13.50;;;;;;;5.54;72.96;102309.94;110185;1268;22157;-77
2023/02/13 02:49:57;;;;;;;19.10;14.10;;;;;;;5.55;72.93;102314.27;110281;1267;22026;-78
2023/02/13 02:50:01;;;;;;;19.80;12.60;;;;;;;5.54;72.80;102317.19;110148;1268;22988;-77
2023/02/13 02:52:49;;;;;;;20.70;14.10;;;;;;;5.53;72.75;102318.91;109772;1268;23122;-79
2023/02/13 02:56:01;;;;;;;18.40;13.20;;;;;;;5.56;72.71;102325.88;110239;1268;22714;-79
2023/02/13 03:08:03;;;;;;;23.50;16.10;;;;;;;5.51;72.43;102322.16;110198;1268;23078;-80
2023/02/13 03:13:47;;;;;;;22.30;16.10;;;;;;;5.51;72.36;102311.11;111114;1258;21998;-78
2023/02/13 03:23:16;;;;;;;21.00;16.20;;;;;;;5.56;72.25;102321.20;110722;1263;22291;-79
2023/02/13 03:26:31;;;;;;;19.20;12.40;;;;;;;5.58;72.18;102324.84;106721;1269;4440692;-78
2023/02/13 03:30:06;;;;;;;19.30;13.70;;;;;;;5.59;72.12;102326.25;109845;1269;21986;-79
2023/02/13 03:33:07;;;;;;;20.10;11.70;;;;;;;5.56;71.97;102324.48;110008;1269;23353;-77
2023/02/13 03:38:53;;;;;;;21.20;13.30;;;;;;;5.58;71.82;102327.45;110310;1265;23042;-78
2023/02/13 03:41:57;;;;;;;22.90;12.70;;;;;;;5.57;71.77;102325.36;109477;1271;23053;-80
2023/02/13 03:47:52;;;;;;;19.80;13.40;;;;;;;5.57;71.70;102323.97;109387;1272;21991;-79
2023/02/13 03:50:27;;;;;;;25.40;13.90;;;;;;;5.58;71.63;102323.48;109301;1272;21996;-80
2023/02/13 03:53:10;;;;;;;19.60;13.30;;;;;;;5.59;71.63;102322.29;109434;1272;22018;-77
2023/02/13 04:02:19;;;;;;;25.30;16.40;;;;;;;5.62;71.76;102317.66;109362;1272;21988;-77
2023/02/13 04:05:20;;;;;;;25.80;19.10;;;;;;;5.61;71.71;102319.02;109568;1272;23862;-77
2023/02/13 04:08:04;;;;;;;28.90;17.80;;;;;;;5.62;71.73;102324.57;109503;1271;23152;-77
2023/02/13 04:10:48;;;;;;;22.60;16.30;;;;;;;5.65;71.81;102326.15;109658;1272;22047;-77
2023/02/13 04:13:58;;;;;;;24.80;17.10;;;;;;;5.66;71.77;102323.06;109336;1272;23856;-78
2023/02/13 04:16:53;;;;;;;33.50;23.00;;;;;;;5.59;71.73;102315.04;109590;1272;22353;-79
2023/02/13 04:19:31;;;;;;;25.60;18.10;;;;;;;5.59;71.80;102315.02;109272;1271;21993;-78
2023/02/13 04:22:04;;;;;;;31.10;21.10;;;;;;;5.62;71.79;102320.41;109714;1263;23754;-78
2023/02/13 04:24:56;;;;;;;29.40;19.40;;;;;;;5.58;71.75;102317.44;110297;1263;22426;-77
2023/02/13 04:27:56;;;;;;;23.80;18.60;;;;;;;5.59;71.81;102319.70;110473;1263;22897;-78
2023/02/13 04:30:41;;;;;;;25.70;17.40;;;;;;;5.58;72.05;102317.60;110517;1260;23027;-79
2023/02/13 04:33:16;;;;;;;24.60;16.50;;;;;;;5.61;71.97;102317.81;110706;1263;21995;-78
2023/02/13 04:35:52;;;;;;;24.90;17.10;;;;;;;5.61;71.91;102316.27;110547;1263;22004;-78
2023/02/13 04:38:22;;;;;;;26.70;18.40;;;;;;;5.57;71.96;102316.04;110920;1258;21965;-79
2023/02/13 04:40:53;;;;;;;26.60;17.40;;;;;;;5.58;72.04;102317.78;111076;1258;23100;-78
2023/02/13 04:43:28;;;;;;;29.00;17.90;;;;;;;5.63;72.21;102322.49;111095;1258;21976;-79
2023/02/13 04:46:06;;;;;;;21.80;17.10;;;;;;;5.64;72.17;102323.73;110650;1258;23046;-77
2023/02/13 04:48:39;;;;;;;25.60;17.60;;;;;;;5.65;72.22;102329.10;110788;1258;23128;-79
2023/02/13 04:51:09;;;;;;;24.90;17.40;;;;;;;5.65;72.23;102326.35;111051;1258;21969;-78
2023/02/13 04:53:46;;;;;;;25.00;17.00;;;;;;;5.64;72.22;102323.04;110954;1258;21999;-78
2023/02/13 04:56:19;;;;;;;22.30;16.00;;;;;;;5.67;72.26;102322.56;110951;1258;23726;-77
2023/02/13 04:58:49;;;;;;;96.70;66.30;;;;;;;5.67;72.32;102311.85;111239;1258;22011;-78
2023/02/13 05:01:21;;;;;;;32.80;21.60;;;;;;;5.65;72.30;102311.66;110929;1258;22464;-78
2023/02/13 05:03:54;;;;;;;31.20;21.80;;;;;;;5.65;72.51;102312.69;110912;1258;22072;-78
2023/02/13 05:06:25;;;;;;;33.40;24.50;;;;;;;5.66;72.55;102313.05;110803;1258;22428;-79
2023/02/13 05:08:56;;;;;;;30.50;20.40;;;;;;;5.68;72.71;102318.95;110707;1258;22728;-79
2023/02/13 05:11:26;;;;;;;24.10;17.90;;;;;;;5.66;72.70;102326.88;110892;1257;22160;-78
2023/02/13 05:13:56;;;;;;;22.30;16.30;;;;;;;5.64;72.81;102329.43;111171;1253;23683;-78
2023/02/13 05:16:28;;;;;;;22.10;17.10;;;;;;;5.63;72.87;102321.12;111180;1257;22130;-77
2023/02/13 05:19:07;;;;;;;24.00;19.10;;;;;;;5.63;72.89;102318.54;110976;1257;23751;-77
2023/02/13 05:24:59;;;;;;;29.10;23.90;;;;;;;5.61;73.00;102307.97;111216;1247;21965;-79
2023/02/13 05:27:31;;;;;;;22.50;17.60;;;;;;;5.60;73.10;102293.63;111072;1258;21978;-80
2023/02/13 05:30:08;;;;;;;26.20;18.30;;;;;;;5.64;73.15;102296.95;111335;1257;23354;-80
2023/02/13 05:32:42;;;;;;;27.20;18.40;;;;;;;5.64;73.31;102299.89;111076;1258;21980;-78
2023/02/13 05:35:18;;;;;;;27.30;18.80;;;;;;;5.65;73.41;102295.42;111107;1257;22032;-77
2023/02/13 05:38:15;;;;;;;22.70;17.60;;;;;;;5.66;73.48;102295.59;111077;1257;21990;-80
2023/02/13 05:40:45;;;;;;;24.30;17.50;;;;;;;5.70;73.54;102305.50;111142;1257;22972;-79
2023/02/13 05:43:19;;;;;;;25.30;17.50;;;;;;;5.73;73.45;102304.67;111007;1257;21968;-79
2023/02/13 05:46:03;;;;;;;24.80;17.70;;;;;;;5.71;73.51;102308.12;110910;1259;21993;-78
2023/02/13 05:49:02;;;;;;;24.10;18.00;;;;;;;5.71;73.54;102308.45;110879;1259;23052;-79
2023/02/13 05:51:39;;;;;;;25.00;18.90;;;;;;;5.71;73.66;102312.77;110221;1267;21991;-78
2023/02/13 05:54:21;;;;;;;22.80;17.90;;;;;;;5.72;73.64;102316.75;110155;1267;21976;-80
2023/02/13 05:56:55;;;;;;;28.10;20.10;;;;;;;5.75;73.66;102319.39;110429;1265;23023;-80
2023/02/13 05:59:34;;;;;;;21.30;18.80;;;;;;;5.78;73.73;102314.42;110423;1266;22748;-79
2023/02/13 06:02:06;;;;;;;;;;;;;;;5.80;73.72;102313.94;109836;1266;22298;-78
2023/02/13 06:04:36;;;;;;;25.20;20.20;;;;;;;5.72;73.91;102316.93;110253;1266;22004;-79
2023/02/13 06:07:11;;;;;;;26.10;21.10;;;;;;;5.75;73.99;102317.30;110469;1258;21993;-79
2023/02/13 06:09:43;;;;;;;28.00;22.60;;;;;;;5.77;73.85;102317.86;110591;1266;22014;-80
2023/02/13 06:12:13;;;;;;;26.30;21.80;;;;;;;5.76;73.68;102319.05;110290;1266;23062;-79
2023/02/13 06:14:44;;;;;;;26.90;23.20;;;;;;;5.76;73.77;102321.30;110300;1267;23126;-79
2023/02/13 06:17:15;;;;;;;30.40;26.00;;;;;;;5.78;73.92;102319.08;110278;1266;23040;-79
2023/02/13 06:19:45;;;;;;;37.20;28.60;;;;;;;5.81;73.91;102320.86;110177;1265;23055;-81
2023/02/13 06:22:15;;;;;;;34.00;28.20;;;;;;;5.83;73.94;102320.02;109294;1272;23764;-79
2023/02/13 06:24:45;;;;;;;35.80;30.10;;;;;;;5.84;73.99;102319.85;109386;1268;21917;-78
2023/02/13 06:27:16;;;;;;;33.50;29.00;;;;;;;5.83;73.97;102324.16;109277;1276;22005;-79
2023/02/13 06:29:55;;;;;;;34.90;29.80;;;;;;;5.82;73.95;102323.45;109698;1269;21962;-79
2023/02/13 06:32:27;;;;;;;37.40;30.70;;;;;;;5.78;73.99;102319.77;109834;1270;22085;-78
2023/02/13 06:35:00;;;;;;;41.80;31.10;;;;;;;5.74;74.15;102320.75;109239;1275;22220;-79
2023/02/13 06:37:39;;;;;;;41.00;34.60;;;;;;;5.74;74.14;102324.03;108952;1278;22013;-78
2023/02/13 06:40:15;;;;;;;40.70;33.40;;;;;;;5.72;74.31;102322.80;108971;1274;22392;-79
2023/02/13 06:42:45;;;;;;;41.50;34.00;;;;;;;5.69;74.38;102319.65;109626;1274;22030;-79
2023/02/13 06:45:24;;;;;;;43.70;34.50;;;;;;;5.68;74.48;102322.06;109533;1270;22060;-79
2023/02/13 06:48:01;;;;;;;44.50;36.30;;;;;;;5.70;74.67;102324.50;109927;1270;23745;-79
2023/02/13 06:50:33;;;;;;;43.40;34.60;;;;;;;5.71;74.69;102324.34;109684;1269;22118;-79
2023/02/13 06:53:04;;;;;;;44.50;35.70;;;;;;;5.72;74.70;102327.81;110109;1263;22081;-80
2023/02/13 06:55:38;;;;;;;43.50;33.50;;;;;;;5.73;74.79;102326.80;110653;1258;22502;-79
2023/02/13 06:58:12;;;;;;;37.20;32.60;;;;;;;5.74;74.91;102326.79;110987;1257;22020;-80
2023/02/13 07:00:46;;;;;;;34.20;29.00;;;;;;;5.72;75.01;102323.33;110713;1262;24294;-81
2023/02/13 07:03:24;;;;;;;29.80;26.00;;;;;;;5.77;75.13;102329.61;110691;1262;22737;-78
2023/02/13 07:05:56;;;;;;;30.50;26.10;;;;;;;5.79;75.28;102332.58;110346;1262;22329;-80
2023/02/13 07:08:41;;;;;;;26.40;22.60;;;;;;;5.83;75.28;102338.16;110610;1262;21968;-80
2023/02/13 07:11:19;;;;;;;23.70;21.10;;;;;;;5.83;75.45;102336.61;110795;1259;21995;-78
2023/02/13 07:13:51;;;;;;;23.60;21.00;;;;;;;5.85;75.35;102338.52;110855;1262;23794;-80
2023/02/13 07:16:31;;;;;;;27.30;23.50;;;;;;;5.83;75.37;102336.62;110807;1262;22120;-79
2023/02/13 07:19:10;;;;;;;29.50;24.60;;;;;;;5.82;75.49;102340.73;110646;1262;22008;-79
2023/02/13 07:21:50;;;;;;;28.20;25.20;;;;;;;5.80;75.61;102340.02;110432;1262;22744;-80
2023/02/13 07:24:28;;;;;;;29.30;24.00;;;;;;;5.86;75.73;102347.02;110546;1262;22978;-78
2023/02/13 07:27:04;;;;;;;33.30;27.50;;;;;;;5.90;75.78;102351.56;110682;1258;23020;-79
2023/02/13 07:29:36;;;;;;;31.90;26.50;;;;;;;5.93;75.75;102353.69;110784;1258;21996;-80
2023/02/13 07:32:07;;;;;;;;;;;;;;;5.94;75.75;102355.42;110929;1258;22419;-78
2023/02/13 07:34:49;;;;;;;30.40;26.00;;;;;;;5.88;75.92;102355.50;110781;1258;22002;-79
2023/02/13 07:37:34;;;;;;;30.60;26.80;;;;;;;5.90;76.08;102360.70;110744;1258;21966;-78
2023/02/13 07:40:08;;;;;;;29.30;26.10;;;;;;;5.94;76.02;102362.86;110992;1258;22006;-78
2023/02/13 07:42:45;;;;;;;30.70;26.20;;;;;;;5.98;75.98;102362.58;111151;1258;21989;-78
2023/02/13 07:45:21;;;;;;;34.70;28.60;;;;;;;6.02;76.05;102365.91;110843;1258;21955;-79
2023/02/13 07:47:55;;;;;;;36.20;30.70;;;;;;;6.06;76.13;102363.05;110873;1258;22099;-78
2023/02/13 07:50:26;;;;;;;36.80;31.00;;;;;;;6.07;76.04;102356.66;111073;1258;23735;-79
2023/02/13 07:53:01;;;;;;;35.90;29.60;;;;;;;6.15;76.11;102359.87;111098;1258;21967;-79
2023/02/13 07:55:38;;;;;;;49.00;37.90;;;;;;;6.19;76.12;102358.54;110854;1258;21938;-79
2023/02/13 07:58:10;;;;;;;50.20;43.20;;;;;;;6.22;76.02;102359.09;110771;1246;22003;-80
2023/02/13 08:00:43;;;;;;;56.20;46.20;;;;;;;6.24;76.14;102355.99;111071;1258;22002;-79
2023/02/13 08:03:17;;;;;;;50.70;42.10;;;;;;;6.26;76.09;102352.23;110926;1258;21969;-80
2023/02/13 08:05:51;;;;;;;52.20;46.10;;;;;;;6.30;76.27;102352.09;110947;1258;22013;-79
2023/02/13 08:08:22;;;;;;;49.70;44.10;;;;;;;6.34;76.12;102353.86;110963;1258;22030;-78
2023/02/13 08:13:58;;;;;;;31.90;28.70;;;;;;;6.38;76.31;102362.05;110928;1258;22238;-79
2023/02/13 08:16:29;;;;;;;36.70;32.10;;;;;;;6.41;76.43;102363.12;110749;1258;23022;-77
2023/02/13 08:19:06;;;;;;;33.90;30.30;;;;;;;6.49;76.41;102357.84;111017;1258;21979;-77
2023/02/13 08:21:40;;;;;;;33.00;29.60;;;;;;;6.54;76.23;102358.94;110936;1258;21955;-78
2023/02/13 08:24:17;;;;;;;31.80;28.50;;;;;;;6.54;76.19;102353.41;110921;1258;23113;-78
2023/02/13 08:27:13;;;;;;;27.60;24.80;;;;;;;6.56;76.16;102360.17;110913;1258;21971;-78
2023/02/13 08:29:49;;;;;;;30.00;25.10;;;;;;;6.56;76.11;102360.51;111090;1258;21966;-76
2023/02/13 08:32:21;;;;;;;27.60;24.60;;;;;;;6.62;76.49;102352.98;110891;1258;22994;-78
2023/02/13 08:34:52;;;;;;;30.50;27.30;;;;;;;6.75;76.65;102351.55;111074;1256;22057;-77
2023/02/13 08:37:23;;;;;;;29.90;26.80;;;;;;;6.84;76.50;102347.31;111062;1257;23097;-78
2023/02/13 08:39:53;;;;;;;37.30;33.40;;;;;;;6.96;76.57;102348.64;111052;1258;23031;-78
2023/02/13 08:42:23;;;;;;;40.30;36.00;;;;;;;7.09;76.52;102346.66;110837;1258;22005;-78
2023/02/13 08:44:56;;;;;;;30.10;27.00;;;;;;;7.21;76.33;102345.04;110677;1258;21998;-77
2023/02/13 08:47:28;;;;;;;24.00;21.50;;;;;;;7.33;76.17;102346.52;110339;1262;23716;-78
2023/02/13 08:50:07;;;;;;;22.20;20.10;;;;;;;7.43;75.92;102348.31;110440;1262;22238;-77
2023/02/13 08:52:50;;;;;;;25.90;20.50;;;;;;;7.47;75.55;102350.61;110294;1262;21983;-77
2023/02/13 08:55:23;;;;;;;19.50;17.50;;;;;;;7.49;75.15;102355.11;110333;1262;22116;-77
2023/02/13 08:58:13;;;;;;;18.80;16.20;;;;;;;7.50;75.05;102353.23;110635;1262;21887;-76
2023/02/13 09:00:45;;;;;;;19.40;17.10;;;;;;;7.52;74.78;102350.98;110541;1262;22010;-77
2023/02/13 09:03:19;;;;;;;21.30;17.70;;;;;;;7.56;74.70;102357.25;110401;1262;22001;-78
2023/02/13 09:05:52;;;;;;;18.70;16.20;;;;;;;7.63;74.63;102359.02;110836;1258;22760;-76
2023/02/13 09:08:24;;;;;;;15.60;14.00;;;;;;;7.65;74.34;102355.73;110963;1258;22938;-77
2023/02/13 09:11:01;;;;;;;15.10;13.60;;;;;;;7.67;74.16;102350.91;110851;1258;21965;-76
2023/02/13 09:13:38;;;;;;;15.70;13.90;;;;;;;7.73;74.32;102350.95;110856;1258;22011;-78
2023/02/13 09:16:10;;;;;;;16.80;14.50;;;;;;;7.75;73.85;102350.61;110929;1258;21996;-81
2023/02/13 09:18:52;;;;;;;16.60;14.80;;;;;;;7.72;73.31;102351.45;111013;1258;22622;-80
2023/02/13 09:21:25;;;;;;;17.10;15.40;;;;;;;7.64;73.05;102348.46;111026;1258;22051;-82
2023/02/13 09:24:10;;;;;;;21.20;18.40;;;;;;;7.59;73.18;102341.50;111056;1258;21967;-82
2023/02/13 09:26:45;;;;;;;21.30;19.10;;;;;;;7.67;73.28;102340.86;111017;1258;22248;-81
2023/02/13 09:29:22;;;;;;;21.40;18.10;;;;;;;7.73;73.21;102343.14;110998;1258;21987;-81
2023/02/13 09:32:18;;;;;;;20.00;17.10;;;;;;;7.79;72.93;102336.42;110773;1263;21984;-81
2023/02/13 09:35:00;;;;;;;19.10;17.20;;;;;;;7.79;72.61;102340.23;110680;1263;22992;-82
2023/02/13 14:02:44;;;;;;;15.20;13.00;;;;;;;6.64;67.09;102228.27;110224;1268;22044;-80
2023/02/13 14:05:15;;;;;;;20.10;12.70;;;;;;;6.67;66.99;102231.57;109275;1277;22855;-80
2023/02/13 14:07:45;;;;;;;14.80;13.20;;;;;;;6.71;66.81;102228.48;109295;1277;21996;-80
2023/02/13 14:10:25;;;;;;;21.00;13.70;;;;;;;6.75;66.84;102231.63;109140;1277;21989;-80
2023/02/13 14:13:34;;;;;;;16.70;14.40;;;;;;;6.79;66.75;102230.11;109256;1277;21999;-80
2023/02/13 14:16:10;;;;;;;17.60;12.40;;;;;;;6.78;66.76;102224.74;108874;1282;22004;-81
2023/02/13 14:18:46;;;;;;;14.80;11.60;;;;;;;6.83;66.75;102223.39;108753;1278;22052;-80
2023/02/13 14:21:23;;;;;;;15.70;12.50;;;;;;;6.88;66.58;102219.11;108521;1287;22001;-79
2023/02/13 14:23:59;;;;;;;17.30;11.00;;;;;;;6.88;66.37;102224.11;108942;1277;23001;-79
2023/02/13 14:26:35;;;;;;;12.90;10.30;;;;;;;6.86;66.29;102232.07;108938;1280;23074;-85
2023/02/13 14:29:27;;;;;;;16.50;10.40;;;;;;;6.84;66.09;102234.30;108983;1268;21986;-85
2023/02/13 14:32:14;;;;;;;;;;;;;;;6.79;66.12;102235.48;108968;1280;21976;-82
2023/02/13 14:34:59;;;;;;;17.10;9.90;;;;;;;6.65;66.16;102245.05;109073;1279;21951;-83
2023/02/13 14:37:49;;;;;;;16.60;11.60;;;;;;;6.57;66.10;102251.90;108843;1284;22012;-83
2023/02/13 14:40:17;;;;;;;14.80;11.50;;;;;;;6.52;66.02;102249.77;109489;1271;21985;-80
2023/02/13 14:42:53;;;;;;;16.30;12.30;;;;;;;6.50;66.11;102246.64;109801;1268;21988;-81
2023/02/13 14:45:32;;;;;;;19.30;12.60;;;;;;;6.51;66.21;102236.61;109779;1271;21986;-83
2023/02/13 14:48:16;;;;;;;15.90;12.60;;;;;;;6.54;66.17;102231.63;109733;1271;21977;-82
2023/02/13 14:50:52;;;;;;;29.30;25.20;;;;;;;6.55;66.09;102233.71;109733;1270;24311;-82
2023/02/13 14:53:50;;;;;;;23.80;15.00;;;;;;;6.53;66.01;102234.21;110088;1265;21975;-85
2023/02/13 14:56:22;;;;;;;20.60;15.30;;;;;;;6.50;65.96;102239.39;110733;1259;23775;-82
2023/02/13 14:59:11;;;;;;;23.10;15.50;;;;;;;6.50;66.02;102240.77;110797;1260;23865;-84
2023/02/13 15:01:58;;;;;;;18.10;13.60;;;;;;;6.51;66.10;102237.31;111108;1259;23060;-85
2023/02/13 15:04:37;;;;;;;17.10;13.00;;;;;;;6.51;66.24;102244.05;111080;1259;21940;-80
2023/02/13 15:07:14;;;;;;;21.60;15.10;;;;;;;6.54;66.28;102236.83;110943;1259;22973;-79
2023/02/13 15:10:03;;;;;;;21.20;16.70;;;;;;;6.56;66.12;102224.04;110991;1258;21970;-80
2023/02/13 15:12:36;;;;;;;23.10;16.40;;;;;;;6.55;66.05;102218.33;110911;1258;21995;-78
2023/02/13 15:15:27;;;;;;;16.60;14.00;;;;;;;6.55;66.00;102226.96;111120;1258;22964;-78
2023/02/13 15:18:01;;;;;;;22.40;14.00;;;;;;;6.50;65.94;102232.46;110973;1258;23580;-81
2023/02/13 15:20:33;;;;;;;17.60;12.10;;;;;;;6.47;66.04;102221.02;110999;1254;21962;-80
2023/02/13 15:23:02;;;;;;;;;;;;;;;6.45;66.06;102216.85;110754;1259;23589;-79
2023/02/13 15:25:37;;;;;;;17.60;14.50;;;;;;;6.37;66.26;102219.71;110981;1258;22110;-81
2023/02/13 15:28:19;;;;;;;19.00;15.30;;;;;;;6.37;66.32;102217.64;111124;1258;21974;-79
2023/02/13 15:31:18;;;;;;;17.80;14.70;;;;;;;6.38;66.28;102227.67;111109;1258;22079;-81
2023/02/13 15:33:50;;;;;;;14.80;12.80;;;;;;;6.37;66.30;102231.13;111118;1257;21959;-81
2023/02/13 15:36:27;;;;;;;17.20;12.80;;;;;;;6.37;66.27;102233.37;110973;1258;22428;-80
2023/02/13 15:39:07;;;;;;;19.80;14.40;;;;;;;6.33;66.34;102230.40;111089;1258;22755;-80
2023/02/13 15:41:41;;;;;;;19.70;14.30;;;;;;;6.31;66.26;102230.55;111166;1258;21971;-80
2023/02/13 15:44:18;;;;;;;17.80;14.80;;;;;;;6.29;66.29;102231.23;111193;1258;21962;-80
2023/02/13 15:46:50;;;;;;;16.30;14.10;;;;;;;6.28;66.35;102227.41;111313;1258;22725;-81
2023/02/13 15:49:25;;;;;;;18.30;15.60;;;;;;;6.28;66.34;102210.80;111039;1258;23802;-79
2023/02/13 15:52:16;;;;;;;17.70;15.60;;;;;;;6.29;66.29;102203.39;111055;1258;22012;-80
2023/02/13 15:54:53;;;;;;;19.20;16.20;;;;;;;6.29;66.30;102205.80;111126;1258;23790;-80
2023/02/13 15:57:23;;;;;;;21.20;16.40;;;;;;;6.30;66.20;102205.98;111437;1253;21977;-82
2023/02/13 15:59:53;;;;;;;21.90;15.90;;;;;;;6.31;66.42;102208.59;111331;1253;23023;-81
2023/02/13 16:02:40;;;;;;;21.00;14.90;;;;;;;6.32;66.12;102208.77;111684;1252;23763;-82
2023/02/13 16:05:13;;;;;;;24.10;17.70;;;;;;;6.29;66.05;102205.98;110959;1261;22268;-82
2023/02/13 16:07:49;;;;;;;;;;;;;;;6.31;66.16;102199.25;110732;1260;22787;-83
2023/02/13 16:10:35;;;;;;;22.10;16.20;;;;;;;6.23;66.30;102196.60;110888;1261;22008;-82
2023/02/13 16:13:17;;;;;;;23.60;19.30;;;;;;;6.23;66.28;102189.49;110860;1261;21983;-82
2023/02/13 16:15:45;;;;;;;23.20;17.50;;;;;;;6.23;66.15;102179.82;110943;1255;23040;-82
2023/02/13 16:18:19;;;;;;;26.40;19.10;;;;;;;6.26;66.18;102182.61;110882;1261;21985;-80
2023/02/13 16:20:53;;;;;;;22.40;15.60;;;;;;;6.29;66.04;102184.88;110901;1260;22460;-82
2023/02/13 16:23:21;;;;;;;20.80;15.20;;;;;;;6.31;65.95;102200.80;111042;1253;22373;-80
2023/02/13 16:25:49;;;;;;;23.20;16.30;;;;;;;6.31;65.93;102205.48;111359;1253;23710;-80
2023/02/13 16:28:24;;;;;;;21.10;15.30;;;;;;;6.32;65.93;102195.81;111368;1253;21963;-81
2023/02/13 16:31:01;;;;;;;19.20;15.20;;;;;;;6.32;65.65;102191.31;111605;1253;22878;-81
2023/02/13 16:33:32;;;;;;;23.40;18.30;;;;;;;6.28;65.64;102192.31;111382;1253;24441;-80
2023/02/13 16:36:10;;;;;;;27.30;21.30;;;;;;;6.25;65.60;102196.25;111356;1253;22001;-82
2023/02/13 16:38:55;;;;;;;21.50;18.10;;;;;;;6.22;65.66;102196.23;111083;1259;21960;-78
2023/02/13 16:41:32;;;;;;;19.70;16.30;;;;;;;6.18;65.63;102201.37;110878;1260;22001;-79
2023/02/13 16:44:02;;;;;;;25.80;17.10;;;;;;;6.15;65.55;102207.56;110907;1259;22169;-79
2023/02/13 16:46:38;;;;;;;22.50;17.50;;;;;;;6.15;65.58;102209.13;111024;1259;23653;-80
2023/02/13 16:49:09;;;;;;;23.30;17.10;;;;;;;6.15;65.50;102214.66;111022;1259;22752;-80
2023/02/13 16:52:08;;;;;;;22.20;17.20;;;;;;;6.17;65.55;102220.38;111212;1259;21984;-77
2023/02/13 16:54:59;;;;;;;25.70;17.90;;;;;;;6.13;65.32;102226.39;111046;1259;22433;-79
2023/02/13 16:57:33;;;;;;;17.30;15.10;;;;;;;6.10;65.21;102218.06;111411;1253;21992;-79
2023/02/13 17:00:04;;;;;;;20.50;18.30;;;;;;;6.09;65.32;102209.23;111603;1253;21981;-77
2023/02/13 17:02:36;;;;;;;22.80;19.40;;;;;;;6.11;65.27;102205.96;111534;1253;22801;-77
2023/02/13 17:05:10;;;;;;;24.30;18.20;;;;;;;6.07;65.25;102198.48;111698;1253;21972;-78
2023/02/13 17:07:40;;;;;;;23.90;19.30;;;;;;;6.06;65.24;102202.45;111813;1252;21966;-77
2023/02/13 17:10:40;;;;;;;30.40;21.40;;;;;;;6.05;65.14;102202.27;111450;1253;21957;-78